KADG

Details ICAO KADG
Name Lenawee Co
Region United States
Timezone America/Detroit (UTC-5.0)
Plans Departing 2
Arriving 5
Stats Elevation 798 ft / 243 m (AMSL)
Location 41.868418° -84.077498°
Runways 2
Magnetic Variation 6.684° W
Sunrise 2017-12-17 12:59:47 UTC / 2017-12-17 07:59:47 Local
Sunset 2017-12-17 22:08:02 UTC / 2017-12-17 17:08:02 Local
Advertisement - Login to hide

Runways

ID Width Length Bearing (true) Bearing (mag) Surface Threshold Offset Overrun Length
05 98 ft / 30 m 4,998 ft / 1,523 m 47.13° 53.81° Asphalt 0 ft / 0 m 0 ft / 0 m
11 151 ft / 46 m 1,807 ft / 551 m 106.97° 113.65° Grass 0 ft / 0 m 0 ft / 0 m
23 98 ft / 30 m 4,998 ft / 1,523 m 227.14° 233.82° Asphalt 0 ft / 0 m 0 ft / 0 m
29 151 ft / 46 m 1,807 ft / 551 m 286.97° 293.65° Grass 0 ft / 0 m 0 ft / 0 m

Map

Weather


0- 5 10 15 20 25 30 35+ Temperature / ° C

Clouds and Precipitation
Forecast for 2017-12-17 18:00 UTC. Updated 39 minutes ago

Ground ~20,000 ft ~40,000 ft Winds

METAR

KADG 171653Z AUTO 09009KT 5SM BR OVC006 M01/M02 A3013 RMK AO2 SLP217 T10061022 TSNO

TAF

Not found

Frequencies

Recorded 118.37 MHz ASOS
Approach 134.35 MHz TOLEDO APP/DEP
Unicom 122.80 MHz CTAF/UNICOM
Warning: Do not use this data for real-world aviation or navigation. No guarantee of current accuracy is given.